createdAt,value
2023-05-16T00:00:35.139Z,9.13
2023-05-16T00:03:03.134Z,9.11
2023-05-16T00:05:29.819Z,9.15
2023-05-16T00:07:56.151Z,9.16
2023-05-16T00:10:22.568Z,9.13
2023-05-16T00:12:51.667Z,9.14
2023-05-16T00:15:20.240Z,9.21
2023-05-16T00:17:47.156Z,9.15
2023-05-16T00:20:14.081Z,9.08
2023-05-16T00:22:40.788Z,9.16
2023-05-16T00:25:08.905Z,9.20
2023-05-16T00:27:36.322Z,9.24
2023-05-16T00:30:03.609Z,9.19
2023-05-16T00:32:30.216Z,9.17
2023-05-16T00:34:56.583Z,9.19
2023-05-16T00:37:23.034Z,9.20
2023-05-16T00:39:49.363Z,9.24
2023-05-16T00:42:15.777Z,9.23
2023-05-16T00:44:42.294Z,9.21
2023-05-16T00:47:08.577Z,9.27
2023-05-16T00:49:35.032Z,9.31
2023-05-16T00:52:01.385Z,9.30
2023-05-16T00:54:29.164Z,9.26
2023-05-16T00:56:56.588Z,9.30
2023-05-16T00:59:24.518Z,9.30
2023-05-16T01:01:52.245Z,9.33
2023-05-16T01:04:19.154Z,9.40
2023-05-16T01:06:46.059Z,9.43
2023-05-16T01:09:13.185Z,9.47
2023-05-16T01:11:57.724Z,9.44
2023-05-16T01:14:36.127Z,9.41
2023-05-16T01:17:30.337Z,9.47
2023-05-16T01:20:32.030Z,9.51
2023-05-16T01:23:07.295Z,9.53
2023-05-16T01:25:36.537Z,9.51
2023-05-16T01:28:03.272Z,9.48
2023-05-16T01:30:35.092Z,9.60
2023-05-16T01:33:01.456Z,9.59
2023-05-16T01:35:28.532Z,9.55
2023-05-16T01:38:17.622Z,9.47
2023-05-16T01:41:08.466Z,9.50
2023-05-16T01:43:43.235Z,9.56
2023-05-16T01:46:13.573Z,9.49
2023-05-16T01:48:51.303Z,9.55
2023-05-16T01:51:21.161Z,9.52
2023-05-16T01:53:49.769Z,9.54
2023-05-16T01:56:17.569Z,9.58
2023-05-16T01:58:44.741Z,9.55
2023-05-16T02:01:13.387Z,9.61
2023-05-16T02:03:39.951Z,9.68
2023-05-16T02:06:06.382Z,9.57
2023-05-16T02:08:33.322Z,9.53
2023-05-16T02:10:59.580Z,9.52
2023-05-16T02:13:25.935Z,9.47
2023-05-16T02:15:52.907Z,9.45
2023-05-16T02:18:19.284Z,9.53
2023-05-16T02:20:45.716Z,9.41
2023-05-16T02:23:12.298Z,9.38
2023-05-16T02:25:38.583Z,9.34
2023-05-16T02:28:04.900Z,9.31
2023-05-16T02:30:31.197Z,9.30
2023-05-16T02:32:57.514Z,9.17
2023-05-16T02:35:24.496Z,9.12
2023-05-16T02:37:51.148Z,9.16
2023-05-16T02:40:17.498Z,9.12
2023-05-16T02:42:43.848Z,9.16
2023-05-16T02:45:10.551Z,9.13
2023-05-16T02:47:36.868Z,9.13
2023-05-16T02:50:03.686Z,9.21
2023-05-16T02:52:30.025Z,9.20
2023-05-16T02:55:15.982Z,9.17
2023-05-16T02:57:43.698Z,9.20
2023-05-16T03:00:11.571Z,9.17
2023-05-16T03:02:38.062Z,9.17
2023-05-16T03:05:06.103Z,9.12
2023-05-16T03:07:32.457Z,9.17
2023-05-16T03:09:58.724Z,9.10
2023-05-16T03:12:25.049Z,9.05
2023-05-16T03:14:51.729Z,9.06
2023-05-16T03:17:18.045Z,9.01
2023-05-16T03:19:44.312Z,9.05
2023-05-16T03:22:10.669Z,9.12
2023-05-16T03:24:37.021Z,9.08
2023-05-16T03:27:04.481Z,9.11
2023-05-16T03:29:31.244Z,9.16
2023-05-16T03:32:00.929Z,9.14
2023-05-16T03:34:28.048Z,9.17
2023-05-16T03:36:54.428Z,8.99
2023-05-16T03:39:21.122Z,8.93
2023-05-16T03:41:47.678Z,9.01
2023-05-16T03:44:13.995Z,9.04
2023-05-16T03:46:40.318Z,8.92
2023-05-16T03:49:06.689Z,8.85
2023-05-16T03:51:33.187Z,8.85
2023-05-16T03:53:59.543Z,8.93
2023-05-16T03:56:26.213Z,8.95
2023-05-16T03:58:52.755Z,8.99
2023-05-16T04:01:19.042Z,9.01
2023-05-16T04:03:45.464Z,9.01
2023-05-16T04:06:11.839Z,8.92
2023-05-16T04:08:40.249Z,8.88
2023-05-16T04:11:06.556Z,8.85
2023-05-16T04:13:32.920Z,8.76
2023-05-16T04:15:59.200Z,8.80
2023-05-16T04:18:25.583Z,8.92
2023-05-16T04:20:51.860Z,8.91
2023-05-16T04:23:18.224Z,8.87
2023-05-16T04:25:44.578Z,8.74
2023-05-16T04:28:11.014Z,8.64
2023-05-16T04:30:37.375Z,8.68
2023-05-16T04:33:03.784Z,8.76
2023-05-16T04:35:30.167Z,8.63
2023-05-16T04:37:56.785Z,8.60
2023-05-16T04:40:25.007Z,8.70
2023-05-16T04:42:52.124Z,8.73
2023-05-16T04:45:18.409Z,8.79
2023-05-16T04:47:44.770Z,8.78
2023-05-16T04:50:11.761Z,8.87
2023-05-16T04:52:38.282Z,8.87
2023-05-16T04:55:05.144Z,8.78
2023-05-16T04:57:31.519Z,8.82
2023-05-16T04:59:57.790Z,8.72
2023-05-16T05:02:24.158Z,8.82
2023-05-16T05:04:50.632Z,8.73
2023-05-16T05:07:17.184Z,8.85
2023-05-16T05:09:43.653Z,8.86
2023-05-16T05:12:09.975Z,8.83
2023-05-16T05:14:36.283Z,8.86
2023-05-16T05:17:02.719Z,8.97
2023-05-16T05:19:29.122Z,8.88
2023-05-16T05:21:55.445Z,8.84
2023-05-16T05:24:21.768Z,8.91
2023-05-16T05:26:48.062Z,9.06
2023-05-16T05:29:14.375Z,9.12
2023-05-16T05:31:40.741Z,9.04
2023-05-16T05:34:07.149Z,9.09
2023-05-16T05:36:33.477Z,8.98
2023-05-16T05:38:59.773Z,9.00
2023-05-16T05:41:27.054Z,9.05
2023-05-16T05:43:53.407Z,9.09
2023-05-16T05:46:19.813Z,9.03
2023-05-16T05:48:46.373Z,9.22
2023-05-16T05:51:14.210Z,9.42
2023-05-16T05:53:41.630Z,9.51
2023-05-16T05:56:07.983Z,9.73
2023-05-16T05:58:34.405Z,10.04
2023-05-16T06:01:00.873Z,9.95
2023-05-16T06:03:27.169Z,9.71
2023-05-16T06:05:53.609Z,9.80
2023-05-16T06:08:19.870Z,9.97
2023-05-16T06:10:47.499Z,10.17
2023-05-16T06:13:13.824Z,10.47
2023-05-16T06:15:40.182Z,10.49
2023-05-16T06:18:06.557Z,10.30
2023-05-16T06:20:32.913Z,10.11
2023-05-16T06:22:59.268Z,10.18
2023-05-16T06:25:25.817Z,10.02
2023-05-16T06:27:52.420Z,9.68
2023-05-16T06:30:18.787Z,9.91
2023-05-16T06:32:45.465Z,10.36
2023-05-16T06:35:11.905Z,10.07
2023-05-16T06:37:38.499Z,9.76
2023-05-16T06:40:06.623Z,9.48
2023-05-16T06:42:33.051Z,9.75
2023-05-16T06:44:59.483Z,9.86
2023-05-16T06:47:25.876Z,9.80
2023-05-16T06:49:52.347Z,9.91
2023-05-16T06:52:18.694Z,9.81
2023-05-16T06:54:45.127Z,9.72
2023-05-16T06:57:11.481Z,9.95
2023-05-16T06:59:37.990Z,10.20
2023-05-16T07:02:04.706Z,10.18
2023-05-16T07:04:31.314Z,10.34
2023-05-16T07:06:57.663Z,10.30
2023-05-16T07:09:24.017Z,10.20
2023-05-16T07:11:50.393Z,10.02
2023-05-16T07:14:16.723Z,10.29
2023-05-16T07:16:43.380Z,10.51
2023-05-16T07:19:09.888Z,10.52
2023-05-16T07:21:36.241Z,10.16
2023-05-16T07:24:02.665Z,10.10
2023-05-16T07:26:29.115Z,9.98
2023-05-16T07:28:55.634Z,9.89
2023-05-16T07:31:22.046Z,10.02
2023-05-16T07:33:49.157Z,10.12
2023-05-16T07:36:17.460Z,9.85
2023-05-16T07:38:45.041Z,10.17
2023-05-16T07:41:11.578Z,10.57
2023-05-16T07:43:38.005Z,10.96
2023-05-16T07:46:05.156Z,11.46
2023-05-16T07:48:31.698Z,11.78
2023-05-16T07:50:58.027Z,11.45
2023-05-16T07:53:24.442Z,11.53
2023-05-16T07:55:51.144Z,11.47
2023-05-16T07:58:20.620Z,11.30
2023-05-16T08:00:47.059Z,11.17
2023-05-16T08:03:13.751Z,11.52
2023-05-16T08:05:40.245Z,11.15
2023-05-16T08:08:06.804Z,11.41
2023-05-16T08:10:33.361Z,11.48
2023-05-16T08:12:59.801Z,11.36
2023-05-16T08:15:28.079Z,11.43
2023-05-16T08:17:58.992Z,11.55
2023-05-16T08:20:26.245Z,11.36
2023-05-16T08:22:52.776Z,11.22
2023-05-16T08:25:19.416Z,11.24
2023-05-16T08:27:46.944Z,10.94
2023-05-16T08:30:14.250Z,11.20
2023-05-16T08:32:40.865Z,11.74
2023-05-16T08:35:07.779Z,11.98
2023-05-16T08:37:34.843Z,12.05
2023-05-16T08:40:01.202Z,12.06
2023-05-16T08:42:27.800Z,12.12
2023-05-16T08:44:54.421Z,11.82
2023-05-16T08:47:24.800Z,11.51
2023-05-16T08:49:52.201Z,11.16
2023-05-16T08:52:20.947Z,11.27
2023-05-16T08:55:01.932Z,11.77
2023-05-16T08:57:35.737Z,11.95
2023-05-16T09:00:10.700Z,12.15
2023-05-16T09:02:39.446Z,12.10
2023-05-16T09:05:08.408Z,12.09
2023-05-16T09:07:34.892Z,12.24
2023-05-16T09:10:01.340Z,12.44
2023-05-16T09:12:27.879Z,12.86
2023-05-16T09:14:54.294Z,13.12
2023-05-16T09:17:28.734Z,13.16
2023-05-16T09:20:21.360Z,13.10
2023-05-16T09:22:58.989Z,12.83
2023-05-16T09:25:31.991Z,12.30
2023-05-16T09:28:01.537Z,12.00
2023-05-16T09:30:34.539Z,11.40
2023-05-16T09:33:01.676Z,11.52
2023-05-16T09:37:57.261Z,12.69
2023-05-16T09:40:24.369Z,13.12
2023-05-16T09:43:07.149Z,13.09
2023-05-16T09:45:34.774Z,13.45
2023-05-16T09:48:06.910Z,13.51
2023-05-16T09:50:37.538Z,13.76
2023-05-16T09:53:04.849Z,13.87
2023-05-16T09:55:31.869Z,13.95
2023-05-16T09:57:58.316Z,13.96
2023-05-16T10:00:34.212Z,13.52
2023-05-16T10:03:05.164Z,13.02
2023-05-16T10:05:32.882Z,12.85
2023-05-16T10:08:02.289Z,13.08
2023-05-16T10:10:29.794Z,13.52
2023-05-16T10:13:00.613Z,12.88
2023-05-16T10:15:27.484Z,12.12
2023-05-16T10:17:58.823Z,12.27
2023-05-16T10:20:26.807Z,12.05
2023-05-16T10:22:56.113Z,12.36
2023-05-16T10:25:36.778Z,12.69
2023-05-16T10:28:04.064Z,12.37
2023-05-16T10:30:33.340Z,12.91
2023-05-16T10:33:01.825Z,13.23
2023-05-16T10:35:28.740Z,13.25
2023-05-16T10:37:56.197Z,12.73
2023-05-16T10:40:23.095Z,12.15
2023-05-16T10:42:57.180Z,12.06
2023-05-16T10:45:24.222Z,12.60
2023-05-16T10:47:56.321Z,12.98
2023-05-16T10:50:36.182Z,13.43
2023-05-16T10:53:23.574Z,13.68
2023-05-16T10:55:58.860Z,13.36
2023-05-16T10:58:40.649Z,13.10
2023-05-16T11:01:19.179Z,13.44
2023-05-16T11:03:58.316Z,13.79
2023-05-16T11:06:26.950Z,13.92
2023-05-16T11:09:06.414Z,13.20
2023-05-16T11:11:48.704Z,12.75
2023-05-16T11:14:34.351Z,12.41
2023-05-16T11:17:21.424Z,12.37
2023-05-16T11:19:50.624Z,12.43
2023-05-16T11:22:20.749Z,12.74
2023-05-16T11:24:52.082Z,13.09
2023-05-16T11:27:26.286Z,12.91
2023-05-16T11:29:54.352Z,12.21
2023-05-16T11:32:22.817Z,12.06
2023-05-16T11:34:50.830Z,12.27
2023-05-16T11:37:18.063Z,12.56
2023-05-16T11:39:44.503Z,12.91
2023-05-16T11:42:10.878Z,13.11
2023-05-16T11:44:37.559Z,12.98
2023-05-16T11:47:04.259Z,12.98
2023-05-16T11:49:31.156Z,12.85
2023-05-16T11:51:57.789Z,12.97
2023-05-16T11:54:25.258Z,12.84
2023-05-16T11:56:52.320Z,13.21
2023-05-16T11:59:19.202Z,13.81
2023-05-16T12:01:48.146Z,14.23
2023-05-16T12:04:16.847Z,14.15
2023-05-16T12:06:48.362Z,13.90
2023-05-16T12:09:18.208Z,12.83
2023-05-16T12:11:44.991Z,12.54
2023-05-16T12:14:12.847Z,12.23
2023-05-16T12:16:42.238Z,12.44
2023-05-16T12:19:09.648Z,12.98
2023-05-16T12:21:36.230Z,12.42
2023-05-16T12:24:02.772Z,12.30
2023-05-16T12:26:30.984Z,12.81
2023-05-16T12:29:00.635Z,13.09
2023-05-16T12:31:32.286Z,13.42
2023-05-16T12:33:59.237Z,13.41
2023-05-16T12:36:28.916Z,13.49
2023-05-16T12:38:55.583Z,13.35
2023-05-16T12:41:23.112Z,13.30
2023-05-16T12:43:49.837Z,13.38
2023-05-16T12:46:17.391Z,12.83
2023-05-16T12:48:44.156Z,12.81
2023-05-16T12:51:15.153Z,12.61
2023-05-16T12:54:01.364Z,12.89
2023-05-16T12:56:32.359Z,12.35
2023-05-16T12:58:58.710Z,12.89
2023-05-16T13:01:25.157Z,12.71
2023-05-16T13:03:51.726Z,12.41
2023-05-16T13:06:18.447Z,12.78
2023-05-16T13:08:44.774Z,11.78
2023-05-16T13:11:11.155Z,10.94
2023-05-16T13:13:37.516Z,10.41
2023-05-16T13:16:04.279Z,10.92
2023-05-16T13:18:31.504Z,11.23
2023-05-16T13:20:57.945Z,11.88
2023-05-16T13:23:24.306Z,12.14
2023-05-16T13:25:52.878Z,12.19
2023-05-16T13:28:19.294Z,12.50
2023-05-16T13:30:45.689Z,12.06
2023-05-16T13:33:12.248Z,12.02
2023-05-16T13:35:38.697Z,12.37
2023-05-16T13:38:05.222Z,12.68
2023-05-16T13:40:31.620Z,13.10
2023-05-16T13:42:58.033Z,12.48
2023-05-16T13:45:24.918Z,12.63
2023-05-16T13:47:51.467Z,12.91
2023-05-16T13:50:17.907Z,12.96
2023-05-16T13:52:44.473Z,12.54
2023-05-16T13:55:10.873Z,12.60
2023-05-16T13:57:37.277Z,12.96
2023-05-16T14:00:35.272Z,13.04
2023-05-16T14:02:58.674Z,12.55
2023-05-16T14:05:25.743Z,12.29
2023-05-16T14:07:52.570Z,12.61
2023-05-16T14:10:19.164Z,12.41
2023-05-16T14:12:45.737Z,12.16
2023-05-16T14:15:12.113Z,12.55
2023-05-16T14:17:38.562Z,12.28
2023-05-16T14:20:10.099Z,12.49
2023-05-16T14:22:38.309Z,12.69
2023-05-16T14:25:06.083Z,12.71
2023-05-16T14:27:32.455Z,12.67
2023-05-16T14:29:59.584Z,12.74
2023-05-16T14:32:26.105Z,12.61
2023-05-16T14:34:52.571Z,12.37
2023-05-16T14:37:20.101Z,12.07
2023-05-16T14:39:49.686Z,11.63
2023-05-16T14:42:17.537Z,11.15
2023-05-16T14:44:44.557Z,10.95
2023-05-16T14:47:10.943Z,10.54
2023-05-16T14:49:37.338Z,10.05
2023-05-16T14:52:03.919Z,10.02
2023-05-16T14:54:30.337Z,10.13
2023-05-16T14:56:56.753Z,10.12
2023-05-16T14:59:23.109Z,10.52
2023-05-16T15:01:49.558Z,10.74
2023-05-16T15:04:19.232Z,10.60
2023-05-16T15:06:45.569Z,10.70
2023-05-16T15:09:12.046Z,10.87
2023-05-16T15:11:38.427Z,11.13
2023-05-16T15:14:04.782Z,11.29
2023-05-16T15:16:31.270Z,11.33
2023-05-16T15:18:58.637Z,11.78
2023-05-16T15:21:25.064Z,11.46
2023-05-16T15:23:51.870Z,11.15
2023-05-16T15:26:18.749Z,11.24
2023-05-16T15:28:45.213Z,11.32
2023-05-16T15:31:11.610Z,10.87
2023-05-16T15:33:37.967Z,10.94
2023-05-16T15:36:04.824Z,10.70
2023-05-16T15:38:31.216Z,10.78
2023-05-16T15:41:14.171Z,10.87
2023-05-16T15:43:44.054Z,10.90
2023-05-16T15:46:11.221Z,10.98
2023-05-16T15:48:42.602Z,10.77
2023-05-16T15:51:09.351Z,10.51
2023-05-16T15:53:35.718Z,10.64
2023-05-16T15:56:02.064Z,10.50
2023-05-16T15:58:28.459Z,10.25
2023-05-16T16:00:55.143Z,9.99
2023-05-16T16:03:21.936Z,9.98
2023-05-16T16:05:48.435Z,10.04
2023-05-16T16:08:14.990Z,9.90
2023-05-16T16:10:41.321Z,9.94
2023-05-16T16:13:07.687Z,9.85
2023-05-16T16:15:35.861Z,9.99
2023-05-16T16:18:02.650Z,9.89
2023-05-16T16:20:29.046Z,9.96
2023-05-16T16:22:55.486Z,10.09
2023-05-16T16:25:21.965Z,10.19
2023-05-16T16:27:48.286Z,10.12
2023-05-16T16:30:14.712Z,10.13
2023-05-16T16:32:41.068Z,10.24
2023-05-16T16:35:07.896Z,10.32
2023-05-16T16:37:34.850Z,10.33
2023-05-16T16:40:01.321Z,10.34
2023-05-16T16:42:30.278Z,10.41
2023-05-16T16:44:56.787Z,10.46
2023-05-16T16:47:24.937Z,10.33
2023-05-16T16:49:51.450Z,10.29
2023-05-16T16:52:17.930Z,10.31
2023-05-16T16:54:44.464Z,10.23
2023-05-16T16:57:11.003Z,10.32
2023-05-16T16:59:37.350Z,10.23
2023-05-16T17:02:03.776Z,10.19
2023-05-16T17:04:31.460Z,10.09
2023-05-16T17:06:57.822Z,10.02
2023-05-16T17:09:25.319Z,10.08
2023-05-16T17:11:52.028Z,9.94
2023-05-16T17:14:18.396Z,9.92
2023-05-16T17:16:44.900Z,9.79
2023-05-16T17:19:11.474Z,9.60
2023-05-16T17:21:40.453Z,9.52
2023-05-16T17:24:07.554Z,9.29
2023-05-16T17:26:33.973Z,9.39
2023-05-16T17:29:00.401Z,9.44
2023-05-16T17:31:27.754Z,9.25
2023-05-16T17:33:54.093Z,9.10
2023-05-16T17:36:20.657Z,8.99
2023-05-16T17:38:47.550Z,8.97
2023-05-16T17:41:14.012Z,8.94
2023-05-16T17:43:40.472Z,8.91
2023-05-16T17:46:07.420Z,9.04
2023-05-16T17:48:34.074Z,9.00
2023-05-16T17:51:03.347Z,9.12
2023-05-16T17:53:29.786Z,9.07
2023-05-16T17:55:56.626Z,9.11
2023-05-16T17:58:23.375Z,9.19
2023-05-16T18:00:49.859Z,9.15
2023-05-16T18:03:16.907Z,8.98
2023-05-16T18:05:43.397Z,8.99
2023-05-16T18:08:09.780Z,8.91
2023-05-16T18:10:50.526Z,9.02
2023-05-16T18:13:18.321Z,9.00
2023-05-16T18:15:44.755Z,8.94
2023-05-16T18:18:11.748Z,8.86
2023-05-16T18:20:38.284Z,8.93
2023-05-16T18:23:05.208Z,8.95
2023-05-16T18:25:31.615Z,8.98
2023-05-16T18:27:57.991Z,8.90
2023-05-16T18:30:24.385Z,8.93
2023-05-16T18:32:50.853Z,8.89
2023-05-16T18:35:17.384Z,8.88
2023-05-16T18:37:44.440Z,8.82
2023-05-16T18:40:11.519Z,8.87
2023-05-16T18:42:37.903Z,8.80
2023-05-16T18:45:04.692Z,8.90
2023-05-16T18:47:31.442Z,8.98
2023-05-16T18:49:57.900Z,8.93
2023-05-16T18:52:24.225Z,8.97
2023-05-16T18:54:50.692Z,9.10
2023-05-16T18:57:17.590Z,9.17
2023-05-16T18:59:43.946Z,9.21
2023-05-16T19:02:10.352Z,9.10
2023-05-16T19:04:36.809Z,9.08
2023-05-16T19:07:05.152Z,9.02
2023-05-16T19:09:32.658Z,8.93
2023-05-16T19:11:59.035Z,8.94
2023-05-16T19:14:27.083Z,9.03
2023-05-16T19:16:53.413Z,9.08
2023-05-16T19:19:19.888Z,9.10
2023-05-16T19:21:46.661Z,9.15
2023-05-16T19:24:13.192Z,9.15
2023-05-16T19:26:39.920Z,9.01
2023-05-16T19:29:06.429Z,8.94
2023-05-16T19:31:32.846Z,8.95
2023-05-16T19:33:59.241Z,8.94
2023-05-16T19:36:25.611Z,8.87
2023-05-16T19:38:52.032Z,8.96
2023-05-16T19:41:18.637Z,8.97
2023-05-16T19:43:45.402Z,9.03
2023-05-16T19:46:11.973Z,9.04
2023-05-16T19:48:38.473Z,9.01
2023-05-16T19:51:05.062Z,9.05
2023-05-16T19:53:31.509Z,9.07
2023-05-16T19:55:57.908Z,9.05
2023-05-16T19:58:24.417Z,8.98
2023-05-16T20:00:50.809Z,8.90
2023-05-16T20:03:17.392Z,8.93
2023-05-16T20:05:43.943Z,9.00
2023-05-16T20:08:11.881Z,9.00
2023-05-16T20:10:39.207Z,8.95
2023-05-16T20:13:05.615Z,8.96
2023-05-16T20:15:32.496Z,8.87
2023-05-16T20:17:58.866Z,8.94
2023-05-16T20:20:26.077Z,8.84
2023-05-16T20:22:52.484Z,8.85
2023-05-16T20:25:18.868Z,9.03
2023-05-16T20:27:45.226Z,9.08
2023-05-16T20:30:12.170Z,8.98
2023-05-16T20:32:38.583Z,9.03
2023-05-16T20:35:08.856Z,9.00
2023-05-16T20:37:35.235Z,8.97
2023-05-16T20:40:01.781Z,8.86
2023-05-16T20:42:28.117Z,8.83
2023-05-16T20:44:54.446Z,8.84
2023-05-16T20:47:21.333Z,8.85
2023-05-16T20:49:47.695Z,8.82
2023-05-16T20:52:14.316Z,8.66
2023-05-16T20:54:41.855Z,8.65
2023-05-16T20:57:09.843Z,8.57
2023-05-16T20:59:37.614Z,8.66
2023-05-16T21:02:05.753Z,8.70
2023-05-16T21:04:32.220Z,8.69
2023-05-16T21:06:59.689Z,8.62
2023-05-16T21:09:26.008Z,8.58
2023-05-16T21:11:52.319Z,8.64
2023-05-16T21:14:18.659Z,8.60
2023-05-16T21:16:44.994Z,8.64
2023-05-16T21:19:11.486Z,8.63
2023-05-16T21:21:37.905Z,8.48
2023-05-16T21:24:05.275Z,8.57
2023-05-16T21:26:31.629Z,8.62
2023-05-16T21:28:58.151Z,8.59
2023-05-16T21:31:24.545Z,8.61
2023-05-16T21:33:52.065Z,8.63
2023-05-16T21:36:21.915Z,8.69
2023-05-16T21:38:48.488Z,8.70
2023-05-16T21:41:14.983Z,8.70
2023-05-16T21:43:41.347Z,8.74
2023-05-16T21:46:07.734Z,8.79
2023-05-16T21:48:34.196Z,8.63
2023-05-16T21:51:00.828Z,8.53
2023-05-16T21:53:27.249Z,8.47
2023-05-16T21:55:53.641Z,8.54
2023-05-16T21:58:20.070Z,8.49
2023-05-16T22:00:46.392Z,8.59
2023-05-16T22:03:12.935Z,8.61
2023-05-16T22:05:39.361Z,8.51
2023-05-16T22:08:05.870Z,8.44
2023-05-16T22:10:32.238Z,8.39
2023-05-16T22:12:58.632Z,8.39
2023-05-16T22:15:25.258Z,8.41
2023-05-16T22:17:51.668Z,8.44
2023-05-16T22:20:18.236Z,8.50
2023-05-16T22:22:44.783Z,8.48
2023-05-16T22:25:11.125Z,8.55
2023-05-16T22:27:37.490Z,8.46
2023-05-16T22:30:04.185Z,8.52
2023-05-16T22:32:30.636Z,8.47
2023-05-16T22:34:57.523Z,8.52
2023-05-16T22:37:23.857Z,8.53
2023-05-16T22:39:50.273Z,8.51
2023-05-16T22:42:16.640Z,8.52
2023-05-16T22:44:43.038Z,8.51
2023-05-16T22:47:09.410Z,8.52
2023-05-16T22:49:36.012Z,8.51
2023-05-16T22:52:02.537Z,8.48
2023-05-16T22:54:28.933Z,8.51
2023-05-16T22:56:55.383Z,8.44
2023-05-16T22:59:21.946Z,8.44
2023-05-16T23:01:48.392Z,8.50
2023-05-16T23:04:14.714Z,8.42
2023-05-16T23:06:41.144Z,8.36
2023-05-16T23:09:07.493Z,8.41
2023-05-16T23:11:33.868Z,8.23
2023-05-16T23:14:00.633Z,8.32
2023-05-16T23:16:27.006Z,8.27
2023-05-16T23:18:53.521Z,8.31
2023-05-16T23:21:19.915Z,8.15
2023-05-16T23:23:46.648Z,8.05
2023-05-16T23:26:12.985Z,8.03
2023-05-16T23:28:39.332Z,8.07
2023-05-16T23:31:06.228Z,8.07
2023-05-16T23:33:32.620Z,8.07
2023-05-16T23:35:58.986Z,8.03
2023-05-16T23:38:27.142Z,7.95
2023-05-16T23:40:53.462Z,7.99
2023-05-16T23:43:19.864Z,7.96
2023-05-16T23:45:46.320Z,7.87
2023-05-16T23:48:12.750Z,7.90
2023-05-16T23:50:39.232Z,7.85
2023-05-16T23:53:05.766Z,7.82
2023-05-16T23:55:32.157Z,7.74
2023-05-16T23:57:58.782Z,7.80
